Weather at Hartenbower Hectares Airport [CLOSED]

Public forecast

Using degrees Fahrenheit for public forecast. Weather courtesy of forecast.io.

Closest aviation weather report (METAR) to Hartenbower Hectares Airport

Closest report is Illinois Valley Regional Airport-Walter A Duncan Field, 10.2 nm (19.0 km) N. Retrieved 2021/08/02 12:15 UTC (14 minutes ago):

KVYS 021215Z AUTO 00000KT 10SM CLR 15/14 A3020 RMK AO2 T01530137

Closest aviation forecast (TAF) to Hartenbower Hectares Airport

Closest forecast is General Wayne A. Downing Peoria International Airport, 39.7 nm (73.6 km) SW. Retrieved 2021/08/02 12:22 UTC (7 minutes ago):

TAF KPIA 021120Z 0212/0312 VRB03KT 4SM BR SKC FM021400 02005KT P6SM SKC FM021700 02007KT P6SM BKN035 FM022300 VRB03KT P6SM FEW050